Time;durP1;ratioP1;P1;durP2;ratioP2;P2;SDS_P1;SDS_P2;PMS_P1;PMS_P2;Temp;Humidity;BMP_temperature;BMP_pressure;BME280_temperature;BME280_humidity;BME280_pressure;Samples;Min_cycle;Max_cycle;Signal;HPM_P1;HPM_P2
2023/03/17 00:03:02;;;;;;;87.70;43.50;;;;;;;0.25;79.58;101555.64;105234;1260;98511;-78
2023/03/17 00:05:48;;;;;;;77.50;41.30;;;;;;;0.23;79.62;101557.91;105164;1276;102277;-78
2023/03/17 00:08:34;;;;;;;85.10;43.80;;;;;;;0.14;79.61;101555.01;105049;1260;100086;-77
2023/03/17 00:11:20;;;;;;;84.70;44.80;;;;;;;0.09;79.62;101550.55;105175;1267;99026;-76
2023/03/17 00:14:06;;;;;;;84.90;42.10;;;;;;;0.08;79.31;101552.03;105257;1261;98050;-78
2023/03/17 00:16:52;;;;;;;81.40;41.60;;;;;;;0.08;79.30;101552.23;105027;1267;98536;-78
2023/03/17 00:19:40;;;;;;;80.00;40.50;;;;;;;0.09;79.58;101544.97;105113;1261;101398;-76
2023/03/17 00:22:26;;;;;;;82.70;40.40;;;;;;;0.08;79.91;101542.72;106163;1260;99294;-76
2023/03/17 00:25:24;;;;;;;86.50;39.70;;;;;;;0.10;80.11;101541.90;105250;1260;99942;-78
2023/03/17 00:28:20;;;;;;;76.20;38.50;;;;;;;0.13;80.57;101537.14;105152;1260;97936;-77
2023/03/17 00:31:28;;;;;;;82.90;41.20;;;;;;;0.13;80.67;101529.55;105234;1267;99267;-78
2023/03/17 00:34:17;;;;;;;83.50;40.80;;;;;;;0.13;80.55;101527.15;105273;1264;101389;-78
2023/03/17 00:37:03;;;;;;;83.10;41.80;;;;;;;0.14;80.55;101524.10;104947;1268;100353;-76
2023/03/17 00:39:48;;;;;;;87.60;42.60;;;;;;;0.13;80.49;101524.14;104915;1266;98610;-77
2023/03/17 00:42:34;;;;;;;90.10;43.30;;;;;;;0.11;80.25;101521.80;105016;1260;99231;-76
2023/03/17 00:45:22;;;;;;;82.50;42.00;;;;;;;0.10;80.23;101513.30;105130;1266;99627;-78
2023/03/17 00:48:16;;;;;;;76.20;39.60;;;;;;;0.10;80.33;101510.14;105183;1260;102730;-77
2023/03/17 00:51:02;;;;;;;270.60;77.40;;;;;;;0.07;80.27;101506.27;105213;1266;100362;-77
2023/03/17 00:53:47;;;;;;;203.60;63.80;;;;;;;0.06;80.30;101501.08;105200;1261;98837;-76
2023/03/17 00:56:33;;;;;;;126.00;49.20;;;;;;;0.06;80.38;101502.29;105154;1260;98012;-78
2023/03/17 00:59:29;;;;;;;120.60;49.90;;;;;;;0.06;80.38;101501.27;105143;1264;98937;-78
2023/03/17 01:02:15;;;;;;;92.10;42.50;;;;;;;0.07;80.66;101500.16;105213;1261;101384;-76
2023/03/17 01:05:01;;;;;;;91.70;43.40;;;;;;;0.07;80.55;101497.34;105184;1265;99227;-78
2023/03/17 01:07:51;;;;;;;87.00;41.40;;;;;;;0.05;80.39;101494.82;105155;1267;98002;-77
2023/03/17 01:10:38;;;;;;;85.70;41.50;;;;;;;0.03;80.57;101488.63;105169;1266;97990;-78
2023/03/17 01:13:24;;;;;;;87.80;41.80;;;;;;;0.02;80.46;101490.63;105256;1266;97921;-78
2023/03/17 01:16:11;;;;;;;81.00;42.90;;;;;;;-0.01;80.88;101494.08;105210;1261;101328;-78
2023/03/17 01:18:57;;;;;;;85.40;42.40;;;;;;;-0.02;81.07;101492.56;105102;1270;99083;-78
2023/03/17 01:21:43;;;;;;;82.40;43.30;;;;;;;-0.02;81.21;101492.80;105246;1260;98927;-77
2023/03/17 01:24:30;;;;;;;86.50;43.70;;;;;;;-0.05;81.33;101496.80;105091;1260;97896;-77
2023/03/17 01:27:17;;;;;;;94.40;45.00;;;;;;;-0.06;81.41;101496.20;105259;1260;97927;-77
2023/03/17 01:30:05;;;;;;;91.20;45.00;;;;;;;-0.07;81.39;101497.15;105150;1264;101337;-77
2023/03/17 01:32:50;;;;;;;81.00;41.20;;;;;;;-0.08;81.30;101501.08;104951;1270;99806;-79
2023/03/17 01:35:37;;;;;;;72.30;38.60;;;;;;;-0.09;81.17;101499.41;105078;1260;99050;-77
2023/03/17 01:38:23;;;;;;;87.60;42.40;;;;;;;-0.12;81.05;101497.32;105185;1264;98093;-80
2023/03/17 01:41:09;;;;;;;81.20;41.00;;;;;;;-0.18;81.15;101496.29;105208;1261;98527;-78
2023/03/17 01:43:54;;;;;;;87.40;40.40;;;;;;;-0.21;80.85;101496.14;105188;1260;101800;-78
2023/03/17 01:46:40;;;;;;;83.50;41.80;;;;;;;-0.24;80.81;101498.07;105293;1260;100082;-79
2023/03/17 01:49:29;;;;;;;84.20;40.30;;;;;;;-0.25;80.87;101497.80;105211;1283;98002;-78
2023/03/17 01:52:19;;;;;;;88.10;42.30;;;;;;;-0.25;80.82;101496.73;105152;1260;97775;-79
2023/03/17 01:55:09;;;;;;;89.00;44.00;;;;;;;-0.28;80.55;101498.45;105120;1268;98080;-78
2023/03/17 01:57:55;;;;;;;81.40;41.10;;;;;;;-0.32;80.39;101502.45;105161;1267;102537;-78
2023/03/17 02:00:42;;;;;;;87.20;43.90;;;;;;;-0.36;80.26;101503.56;105198;1265;99143;-77
2023/03/17 02:03:28;;;;;;;86.70;41.80;;;;;;;-0.40;80.22;101505.38;105165;1260;99483;-77
2023/03/17 02:06:14;;;;;;;84.00;41.60;;;;;;;-0.44;80.08;101503.01;105088;1264;98506;-78
2023/03/17 02:09:00;;;;;;;91.10;44.10;;;;;;;-0.49;79.92;101502.48;105154;1260;97808;-76
2023/03/17 02:11:46;;;;;;;86.40;42.70;;;;;;;-0.56;79.86;101502.89;105192;1260;101389;-77
2023/03/17 02:14:33;;;;;;;92.30;45.30;;;;;;;-0.60;80.00;101503.16;105104;1260;99088;-78
2023/03/17 02:17:20;;;;;;;91.50;47.50;;;;;;;-0.64;80.15;101504.75;104998;1260;98498;-76
2023/03/17 02:20:29;;;;;;;92.70;46.90;;;;;;;-0.64;80.58;101508.66;105191;1260;98011;-78
2023/03/17 02:23:21;;;;;;;91.80;46.70;;;;;;;-0.65;80.48;101505.58;105101;1260;99554;-79
2023/03/17 02:26:07;;;;;;;101.70;47.30;;;;;;;-0.68;80.48;101506.08;107073;1260;102675;-76
2023/03/17 02:28:53;;;;;;;100.50;49.70;;;;;;;-0.71;80.34;101502.10;105140;1260;99770;-76
2023/03/17 02:31:39;;;;;;;86.40;45.60;;;;;;;-0.76;80.17;101503.44;105185;1260;97961;-77
2023/03/17 02:34:25;;;;;;;96.40;44.50;;;;;;;-0.80;79.90;101503.81;105249;1267;97973;-77
2023/03/17 02:37:12;;;;;;;101.80;46.60;;;;;;;-0.81;80.09;101499.15;105347;1260;98483;-77
2023/03/17 02:40:00;;;;;;;100.60;46.80;;;;;;;-0.80;80.29;101502.94;105003;1265;102034;-78
2023/03/17 02:42:46;;;;;;;97.20;46.40;;;;;;;-0.80;80.52;101508.54;105228;1264;99249;-77
2023/03/17 02:45:31;;;;;;;94.30;45.10;;;;;;;-0.80;80.46;101517.02;105138;1264;97971;-78
2023/03/17 02:48:18;;;;;;;102.00;49.80;;;;;;;-0.82;80.52;101518.00;105170;1267;98067;-78
2023/03/17 02:51:03;;;;;;;102.90;49.90;;;;;;;-0.82;80.84;101523.62;105184;1260;98065;-78
2023/03/17 02:53:49;;;;;;;97.70;50.00;;;;;;;-0.87;80.86;101529.52;105191;1260;102627;-79
2023/03/17 02:56:35;;;;;;;102.80;50.90;;;;;;;-0.91;80.95;101533.05;105124;1261;99818;-78
2023/03/17 02:59:21;;;;;;;94.30;47.20;;;;;;;-0.92;81.00;101531.39;105172;1266;97823;-77
2023/03/17 03:02:07;;;;;;;97.70;50.00;;;;;;;-0.97;80.80;101535.54;105096;1267;97884;-78
2023/03/17 03:04:53;;;;;;;89.30;47.80;;;;;;;-1.02;80.70;101536.56;105216;1267;98749;-77
2023/03/17 03:07:39;;;;;;;97.40;46.60;;;;;;;-1.04;80.78;101530.68;105050;1267;142582;-77
2023/03/17 03:10:24;;;;;;;98.60;48.90;;;;;;;-1.06;80.50;101531.69;105236;1265;99309;-77
2023/03/17 03:13:10;;;;;;;94.20;45.00;;;;;;;-1.11;80.20;101532.90;105217;1260;97913;-78
2023/03/17 03:15:56;;;;;;;83.60;42.30;;;;;;;-1.17;80.21;101534.98;105127;1265;97909;-77
2023/03/17 03:18:42;;;;;;;84.70;44.10;;;;;;;-1.21;80.15;101533.29;105011;1264;97954;-77
2023/03/17 03:21:28;;;;;;;91.20;45.90;;;;;;;-1.22;80.41;101535.14;105159;1259;101332;-78
2023/03/17 03:24:14;;;;;;;96.00;47.70;;;;;;;-1.22;80.60;101544.05;105155;1267;99089;-77
2023/03/17 03:26:59;;;;;;;90.00;43.90;;;;;;;-1.23;80.46;101540.77;105245;1264;98837;-77
2023/03/17 03:29:45;;;;;;;88.10;44.80;;;;;;;-1.24;80.34;101537.20;105229;1262;98845;-75
2023/03/17 03:32:31;;;;;;;99.20;47.20;;;;;;;-1.26;80.34;101541.30;105234;1260;98692;-78
2023/03/17 03:35:16;;;;;;;88.80;45.80;;;;;;;-1.30;80.24;101538.58;105112;1276;102126;-78
2023/03/17 03:38:02;;;;;;;96.00;48.70;;;;;;;-1.34;80.27;101543.52;105169;1262;101071;-77
2023/03/17 03:40:48;;;;;;;96.20;47.20;;;;;;;-1.36;80.27;101542.94;105063;1267;98056;-77
2023/03/17 03:43:34;;;;;;;93.00;46.90;;;;;;;-1.39;80.23;101539.48;105186;1265;99328;-76
2023/03/17 03:46:19;;;;;;;90.90;46.10;;;;;;;-1.41;80.30;101541.15;104939;1264;97887;-77
2023/03/17 03:49:05;;;;;;;99.10;47.50;;;;;;;-1.43;80.26;101535.29;105027;1265;103115;-77
2023/03/17 03:51:50;;;;;;;97.30;45.70;;;;;;;-1.42;80.34;101532.79;105043;1277;100352;-77
2023/03/17 03:54:36;;;;;;;109.60;50.30;;;;;;;-1.41;80.43;101530.95;105100;1264;97990;-78
2023/03/17 03:57:22;;;;;;;102.10;47.70;;;;;;;-1.38;80.77;101526.78;104999;1259;98036;-78
2023/03/17 04:00:09;;;;;;;98.20;47.40;;;;;;;-1.35;81.17;101523.08;105109;1260;98427;-76
2023/03/17 04:02:59;;;;;;;93.80;45.70;;;;;;;-1.30;81.46;101527.37;105259;1267;103008;-76
2023/03/17 04:05:44;;;;;;;87.80;43.90;;;;;;;-1.27;81.68;101539.42;105187;1265;99775;-77
2023/03/17 04:08:30;;;;;;;85.90;41.60;;;;;;;-1.24;81.81;101545.24;105168;1264;97997;-76
2023/03/17 04:11:16;;;;;;;85.00;42.50;;;;;;;-1.22;81.91;101547.04;105161;1264;98580;-78
2023/03/17 04:14:02;;;;;;;83.00;42.40;;;;;;;-1.21;81.72;101540.30;105218;1264;98510;-77
2023/03/17 04:16:47;;;;;;;89.70;45.50;;;;;;;-1.23;81.38;101540.92;105105;1261;102626;-77
2023/03/17 04:19:34;;;;;;;86.40;43.90;;;;;;;-1.27;81.15;101545.23;105197;1264;100379;-77
2023/03/17 04:22:19;;;;;;;87.30;42.40;;;;;;;-1.30;81.21;101542.40;105156;1264;98710;-77
2023/03/17 04:25:05;;;;;;;85.60;42.60;;;;;;;-1.29;81.45;101538.52;105144;1267;98060;-77
2023/03/17 04:27:51;;;;;;;80.90;38.90;;;;;;;-1.30;81.30;101540.46;105156;1259;99586;-78
2023/03/17 04:30:37;;;;;;;82.90;40.70;;;;;;;-1.29;81.45;101537.12;104918;1261;101366;-76
2023/03/17 04:33:22;;;;;;;77.20;39.10;;;;;;;-1.27;81.71;101536.47;105269;1261;99807;-77
2023/03/17 04:36:16;;;;;;;74.10;38.90;;;;;;;-1.26;81.71;101530.23;105132;1260;98017;-77
2023/03/17 04:39:01;;;;;;;70.70;35.80;;;;;;;-1.25;81.79;101531.60;105143;1260;97988;-76
2023/03/17 04:41:48;;;;;;;72.60;36.60;;;;;;;-1.24;81.75;101533.65;105244;1260;97967;-76
2023/03/17 04:44:33;;;;;;;74.10;36.60;;;;;;;-1.22;81.94;101534.61;105164;1264;101344;-77
2023/03/17 04:47:19;;;;;;;70.50;36.40;;;;;;;-1.21;81.96;101537.68;105253;1259;100454;-78
2023/03/17 04:50:07;;;;;;;82.30;39.70;;;;;;;-1.21;82.06;101538.55;105122;1264;97958;-76
2023/03/17 04:52:53;;;;;;;77.50;41.40;;;;;;;-1.22;82.13;101534.96;105159;1265;98068;-78
2023/03/17 04:55:40;;;;;;;84.90;43.90;;;;;;;-1.23;82.12;101537.80;105221;1266;98550;-77
2023/03/17 04:58:26;;;;;;;90.00;44.60;;;;;;;-1.25;82.28;101530.92;105122;1264;102545;-76
2023/03/17 05:01:11;;;;;;;89.80;45.50;;;;;;;-1.24;82.21;101530.89;105033;1259;99191;-78
2023/03/17 05:03:57;;;;;;;94.40;45.20;;;;;;;-1.24;82.23;101542.08;104834;1267;99014;-76
2023/03/17 05:06:42;;;;;;;83.80;43.90;;;;;;;-1.23;82.31;101551.67;105043;1260;97980;-78
2023/03/17 05:09:28;;;;;;;86.30;43.70;;;;;;;-1.24;82.38;101561.15;105149;1264;98567;-77
2023/03/17 05:12:14;;;;;;;92.60;45.00;;;;;;;-1.22;82.37;101564.40;105129;1261;101367;-78
2023/03/17 05:14:59;;;;;;;94.60;47.00;;;;;;;-1.20;82.56;101570.36;105246;1265;99098;-78
2023/03/17 05:17:45;;;;;;;102.60;47.50;;;;;;;-1.16;82.91;101570.70;105170;1260;99031;-77
2023/03/17 05:20:30;;;;;;;100.50;47.60;;;;;;;-1.13;83.01;101569.45;105239;1267;98024;-78
2023/03/17 05:23:16;;;;;;;108.30;50.70;;;;;;;-1.08;83.19;101577.59;105304;1265;97839;-76
2023/03/17 05:26:02;;;;;;;102.30;47.10;;;;;;;-1.05;83.31;101581.05;105234;1266;101333;-78
2023/03/17 05:28:47;;;;;;;96.40;45.30;;;;;;;-1.01;83.27;101589.09;105131;1260;100042;-78
2023/03/17 05:31:33;;;;;;;87.00;43.40;;;;;;;-0.98;83.45;101596.23;105106;1265;98198;-76
2023/03/17 05:34:19;;;;;;;93.00;43.40;;;;;;;-0.93;83.66;101590.33;105123;1259;97901;-76
2023/03/17 05:37:04;;;;;;;90.60;43.80;;;;;;;-0.88;83.68;101584.64;105169;1265;97872;-77
2023/03/17 05:39:52;;;;;;;91.80;44.60;;;;;;;-0.85;83.75;101582.52;105157;1266;101432;-79
2023/03/17 05:42:38;;;;;;;87.40;42.80;;;;;;;-0.80;83.97;101579.76;105230;1259;100381;-78
2023/03/17 05:45:23;;;;;;;98.20;43.30;;;;;;;-0.76;84.28;101580.39;105343;1264;99462;-77
2023/03/17 05:48:11;;;;;;;80.20;39.80;;;;;;;-0.71;84.65;101583.25;105180;1262;97916;-77
2023/03/17 05:50:56;;;;;;;81.90;41.10;;;;;;;-0.66;84.87;101579.81;105251;1261;99659;-80
2023/03/17 05:53:42;;;;;;;91.70;47.00;;;;;;;-0.61;85.18;101581.44;105125;1265;102847;-76
2023/03/17 05:56:32;;;;;;;91.20;48.20;;;;;;;-0.58;85.47;101581.96;105167;1265;99264;-77
2023/03/17 05:59:17;;;;;;;93.20;50.00;;;;;;;-0.54;85.65;101577.16;105191;1260;97992;-77
2023/03/17 06:02:03;;;;;;;89.40;45.30;;;;;;;-0.50;85.68;101577.08;105225;1264;99170;-78
2023/03/17 06:04:49;;;;;;;87.50;44.70;;;;;;;-0.46;85.77;101578.08;105165;1260;98435;-78
2023/03/17 06:07:35;;;;;;;75.20;40.20;;;;;;;-0.41;85.96;101578.64;105178;1260;103130;-77
2023/03/17 06:10:22;;;;;;;83.60;41.90;;;;;;;-0.38;86.17;101579.85;105214;1273;100342;-78
2023/03/17 06:13:07;;;;;;;82.60;43.50;;;;;;;-0.37;86.23;101575.25;105230;1264;99101;-76
2023/03/17 06:15:53;;;;;;;86.20;43.30;;;;;;;-0.34;86.34;101571.48;105205;1264;97973;-77
2023/03/17 06:18:39;;;;;;;83.30;45.60;;;;;;;-0.28;86.68;101575.55;105248;1260;98283;-77
2023/03/17 06:21:24;;;;;;;82.60;46.60;;;;;;;-0.25;86.89;101572.35;105227;1262;101371;-77
2023/03/17 06:24:10;;;;;;;92.70;49.50;;;;;;;-0.23;86.97;101574.85;105182;1262;99061;-78
2023/03/17 06:26:55;;;;;;;87.70;46.90;;;;;;;-0.19;86.81;101576.20;105152;1265;98724;-77
2023/03/17 06:29:41;;;;;;;75.90;41.50;;;;;;;-0.12;86.97;101576.83;105202;1265;97984;-76
2023/03/17 06:32:27;;;;;;;69.00;35.70;;;;;;;-0.04;87.11;101579.84;105435;1265;98006;-78
2023/03/17 06:35:12;;;;;;;69.70;35.50;;;;;;;0.04;87.12;101583.20;105129;1261;102601;-76
2023/03/17 06:37:59;;;;;;;68.70;36.90;;;;;;;0.12;87.25;101583.36;105200;1262;100325;-77
2023/03/17 06:40:45;;;;;;;66.00;34.40;;;;;;;0.21;87.30;101581.20;105178;1266;98470;-76
2023/03/17 06:43:31;;;;;;;64.70;32.30;;;;;;;0.30;87.09;101578.86;105136;1261;97882;-76
2023/03/17 06:46:17;;;;;;;57.30;30.30;;;;;;;0.39;87.21;101574.45;105227;1262;97597;-76
2023/03/17 06:49:03;;;;;;;55.40;27.60;;;;;;;0.47;87.34;101574.61;105142;1260;102273;-77
2023/03/17 06:51:49;;;;;;;53.40;28.40;;;;;;;0.55;87.57;101576.55;105226;1259;99698;-77
2023/03/17 06:54:35;;;;;;;51.40;27.00;;;;;;;0.62;87.71;101574.86;105087;1264;97977;-78
2023/03/17 06:57:21;;;;;;;53.90;29.00;;;;;;;0.69;87.87;101575.98;105208;1260;97977;-77
2023/03/17 07:00:11;;;;;;;47.40;24.80;;;;;;;0.78;87.99;101576.11;105213;1260;99648;-78
2023/03/17 07:02:57;;;;;;;47.10;24.90;;;;;;;0.85;87.71;101567.55;105141;1263;102663;-76
2023/03/17 07:05:43;;;;;;;45.90;23.80;;;;;;;0.94;87.82;101560.98;105224;1261;99069;-77
2023/03/17 07:08:29;;;;;;;45.30;22.80;;;;;;;1.06;87.93;101567.55;105134;1260;99024;-78
2023/03/17 07:11:15;;;;;;;45.70;21.70;;;;;;;1.19;88.11;101563.67;105179;1260;97977;-77
2023/03/17 07:14:01;;;;;;;38.20;20.30;;;;;;;1.32;87.92;101563.28;105127;1260;98391;-77
2023/03/17 07:16:47;;;;;;;41.00;21.10;;;;;;;1.44;87.93;101560.30;105232;1260;102100;-78
2023/03/17 07:19:33;;;;;;;38.90;19.30;;;;;;;1.56;87.84;101557.74;104889;1259;99660;-77
2023/03/17 07:22:19;;;;;;;51.90;25.30;;;;;;;1.69;87.77;101559.71;104991;1264;99008;-76
2023/03/17 07:25:06;;;;;;;34.80;19.00;;;;;;;1.81;87.60;101557.95;104929;1264;97968;-78
2023/03/17 07:27:52;;;;;;;33.00;18.50;;;;;;;1.93;87.27;101562.32;104941;1267;98639;-76
2023/03/17 07:30:39;;;;;;;36.10;21.50;;;;;;;2.06;87.09;101565.13;104944;1265;102615;-77
2023/03/17 07:33:24;;;;;;;40.50;20.20;;;;;;;2.20;87.25;101559.35;105625;1260;99089;-76
2023/03/17 07:36:10;;;;;;;38.40;20.80;;;;;;;2.34;87.26;101554.27;105174;1265;99192;-79
2023/03/17 07:38:55;;;;;;;37.30;20.30;;;;;;;2.47;87.08;101552.77;105154;1265;98067;-78
2023/03/17 07:41:42;;;;;;;33.10;19.80;;;;;;;2.62;86.93;101550.64;105289;1260;97917;-81
2023/03/17 07:44:29;;;;;;;35.30;20.10;;;;;;;2.77;87.07;101549.98;105945;1259;102622;-80
2023/03/17 07:47:15;;;;;;;30.80;19.50;;;;;;;2.96;87.06;101550.52;106127;1261;99088;-85
2023/03/17 07:50:02;;;;;;;33.20;16.40;;;;;;;3.14;86.87;101548.83;106417;1265;99021;-87
2023/03/17 07:52:48;;;;;;;35.20;15.60;;;;;;;3.28;86.04;101542.42;106152;1261;97991;-84
2023/03/17 07:55:35;;;;;;;24.50;14.30;;;;;;;3.40;85.87;101535.65;105909;1262;97975;-85
2023/03/17 07:58:27;;;;;;;24.70;12.90;;;;;;;3.51;85.71;101537.94;106593;1261;102538;-91
2023/03/17 08:01:23;;;;;;;18.00;10.40;;;;;;;3.63;85.07;101544.94;105947;1264;99118;-80
2023/03/17 08:04:11;;;;;;;17.90;9.70;;;;;;;3.74;84.04;101540.38;105985;1262;98465;-87
2023/03/17 08:06:57;;;;;;;14.10;8.30;;;;;;;3.85;83.70;101540.70;105836;1261;97965;-86
2023/03/17 08:09:43;;;;;;;14.30;7.80;;;;;;;4.02;83.13;101540.77;106095;1260;98033;-80
2023/03/17 08:12:29;;;;;;;18.40;7.10;;;;;;;4.20;82.79;101541.45;105618;1265;101391;-80
2023/03/17 08:15:15;;;;;;;17.50;6.40;;;;;;;4.34;82.11;101548.62;105691;1260;99074;-78
2023/03/17 08:18:01;;;;;;;11.10;7.00;;;;;;;4.46;81.51;101560.17;105366;1268;98032;-79
2023/03/17 08:20:47;;;;;;;12.00;6.50;;;;;;;4.57;81.25;101563.16;105358;1265;97967;-78
2023/03/17 08:23:33;;;;;;;10.80;5.60;;;;;;;4.66;80.80;101562.02;105280;1268;98055;-78
2023/03/17 08:26:19;;;;;;;11.40;5.50;;;;;;;4.75;79.74;101557.10;105265;1264;102600;-77
2023/03/17 08:29:06;;;;;;;26.10;11.50;;;;;;;4.79;78.97;101553.70;105283;1261;99200;-78
2023/03/17 08:31:52;;;;;;;161.80;47.40;;;;;;;4.84;78.48;101555.59;105456;1264;98925;-78
2023/03/17 08:34:38;;;;;;;25.20;12.20;;;;;;;4.91;78.02;101557.00;105411;1259;98756;-79
2023/03/17 08:37:23;;;;;;;17.70;8.70;;;;;;;4.99;77.94;101560.71;105612;1266;98475;-80
2023/03/17 08:40:15;;;;;;;60.60;18.70;;;;;;;5.10;77.72;101559.29;105625;1261;101409;-78
2023/03/17 08:43:01;;;;;;;22.20;10.60;;;;;;;5.20;77.51;101558.55;105591;1264;100075;-78
2023/03/17 08:45:47;;;;;;;13.10;7.10;;;;;;;5.27;76.80;101560.25;105536;1265;99002;-79
2023/03/17 08:48:35;;;;;;;10.10;6.00;;;;;;;5.32;76.55;101558.47;105457;1262;97961;-79
2023/03/17 08:51:27;;;;;;;13.90;7.00;;;;;;;5.35;76.12;101563.50;105459;1263;98100;-78
2023/03/17 08:54:14;;;;;;;59.20;18.00;;;;;;;5.41;75.36;101562.95;105370;1264;101350;-79
2023/03/17 08:57:00;;;;;;;143.90;53.80;;;;;;;5.49;74.84;101563.16;106664;1261;99210;-80
2023/03/17 08:59:46;;;;;;;32.00;15.10;;;;;;;5.60;74.74;101565.05;105841;1265;100669;-80
2023/03/17 09:02:31;;;;;;;25.30;13.80;;;;;;;5.71;73.90;101565.70;105976;1267;98050;-80
2023/03/17 09:05:18;;;;;;;15.20;9.40;;;;;;;5.80;73.30;101561.38;106214;1263;96221;-80
2023/03/17 09:08:03;;;;;;;17.00;7.60;;;;;;;5.88;72.97;101561.71;105228;1266;101355;-78
2023/03/17 09:10:50;;;;;;;13.40;7.10;;;;;;;5.97;73.15;101563.59;105238;1267;100112;-76
2023/03/17 09:13:37;;;;;;;13.90;6.50;;;;;;;6.07;72.92;101563.27;105211;1263;97980;-77
2023/03/17 09:16:53;;;;;;;15.30;7.60;;;;;;;6.17;72.52;101559.54;108083;1260;96257;31
2023/03/17 09:19:39;;;;;;;11.50;6.60;;;;;;;6.27;71.77;101548.21;105350;1267;96034;-77
2023/03/17 09:25:42;;;;;;;10.20;5.80;;;;;;;6.40;71.17;101533.48;103895;1272;97884;-77
2023/03/17 09:28:28;;;;;;;12.00;6.60;;;;;;;6.49;70.51;101534.36;104752;1267;98121;-78
2023/03/17 09:31:14;;;;;;;14.20;6.60;;;;;;;6.54;69.92;101529.74;104513;1271;97994;-78
2023/03/17 09:33:59;;;;;;;12.10;5.80;;;;;;;6.59;69.54;101530.20;104546;1267;97979;-76
2023/03/17 09:36:45;;;;;;;15.60;6.30;;;;;;;6.66;69.74;101524.04;104685;1269;101338;-78
2023/03/17 09:39:30;;;;;;;12.30;6.50;;;;;;;6.74;68.96;101522.77;104518;1272;100572;-76
2023/03/17 09:42:17;;;;;;;17.60;6.30;;;;;;;6.80;68.29;101526.69;104490;1273;98441;-78
2023/03/17 09:45:15;;;;;;;12.30;6.10;;;;;;;6.85;67.78;101529.54;104560;1268;99240;-76
2023/03/17 09:48:16;;;;;;;12.40;7.00;;;;;;;6.91;67.36;101526.11;104604;1267;97923;-76
2023/03/17 09:51:07;;;;;;;;;;;;;;;7.01;67.26;101518.52;104675;1267;101339;-76
2023/03/17 09:54:11;;;;;;;12.40;7.50;;;;;;;7.08;67.12;101509.71;104619;1267;99909;-78
2023/03/17 09:57:26;;;;;;;11.30;5.70;;;;;;;7.16;67.06;101503.08;104594;1267;98925;-79
2023/03/17 10:00:17;;;;;;;15.00;6.40;;;;;;;7.26;66.55;101497.11;104562;1267;98190;-78
2023/03/17 10:03:02;;;;;;;12.60;6.40;;;;;;;7.34;66.06;101498.35;105788;1267;97980;-77
2023/03/17 10:05:48;;;;;;;9.60;6.50;;;;;;;7.40;65.69;101494.69;104677;1271;101461;-79
2023/03/17 10:08:41;;;;;;;13.90;6.20;;;;;;;7.47;65.15;101494.59;104620;1271;99142;-76
2023/03/17 10:11:39;;;;;;;12.40;6.20;;;;;;;7.53;65.07;101492.80;104650;1267;98058;-79
2023/03/17 10:14:54;;;;;;;11.80;5.80;;;;;;;7.62;65.02;101489.17;104612;1270;97842;-76
2023/03/17 10:17:41;;;;;;;13.30;5.90;;;;;;;7.73;64.26;101484.21;104628;1271;98538;-78
2023/03/17 10:20:29;;;;;;;13.40;5.70;;;;;;;7.83;64.11;101485.27;104737;1271;102107;-79
2023/03/17 10:23:19;;;;;;;12.00;5.80;;;;;;;7.92;63.72;101487.79;104691;1273;99851;-80
2023/03/17 10:26:12;;;;;;;14.60;6.30;;;;;;;7.98;62.94;101486.95;105105;1267;99047;-77
2023/03/17 10:29:03;;;;;;;14.30;5.70;;;;;;;8.04;63.38;101486.70;104802;1271;98000;-78
2023/03/17 10:31:50;;;;;;;8.70;4.90;;;;;;;8.11;62.31;101477.91;104564;1268;97904;-79
2023/03/17 10:34:38;;;;;;;13.70;5.90;;;;;;;8.13;61.69;101479.30;104809;1267;101353;-79
2023/03/17 10:37:25;;;;;;;9.40;5.00;;;;;;;8.12;61.14;101483.13;104668;1272;99070;-79
2023/03/17 10:40:25;;;;;;;10.10;5.40;;;;;;;8.14;61.28;101483.42;104661;1267;99327;-78
2023/03/17 10:43:20;;;;;;;11.10;5.70;;;;;;;8.17;60.78;101478.55;104712;1267;99228;-78
2023/03/17 10:46:18;;;;;;;12.60;5.60;;;;;;;8.17;60.26;101479.09;104863;1273;98496;-79
2023/03/17 10:49:08;;;;;;;11.80;4.90;;;;;;;8.17;60.06;101482.92;104818;1271;103621;-79
2023/03/17 10:51:54;;;;;;;13.90;5.40;;;;;;;8.20;59.93;101481.55;104892;1271;100356;-77
2023/03/17 10:54:40;;;;;;;11.70;5.50;;;;;;;8.25;59.97;101484.88;104957;1271;98534;-77
2023/03/17 10:57:27;;;;;;;14.20;5.70;;;;;;;8.27;59.44;101488.00;104742;1267;99261;-78
2023/03/17 11:00:20;;;;;;;17.00;6.70;;;;;;;8.30;59.51;101486.50;104628;1270;98453;-79
2023/03/17 11:03:21;;;;;;;11.90;6.30;;;;;;;8.33;59.62;101479.92;104662;1267;102447;-79
2023/03/17 11:06:17;;;;;;;14.90;6.20;;;;;;;8.37;59.61;101473.30;104834;1271;100375;-78
2023/03/17 11:09:08;;;;;;;11.60;5.20;;;;;;;8.41;59.07;101467.63;104657;1285;97964;-77
2023/03/17 11:12:23;;;;;;;15.00;6.50;;;;;;;8.43;59.07;101462.78;104815;1271;97890;-77
2023/03/17 11:15:13;;;;;;;12.20;6.30;;;;;;;8.47;59.56;101457.71;104805;1268;97984;-78
2023/03/17 11:18:03;;;;;;;11.50;5.20;;;;;;;8.52;59.30;101453.62;104884;1268;102734;-77
2023/03/17 11:21:07;;;;;;;14.60;6.60;;;;;;;8.55;58.62;101453.38;104840;1268;99081;-77
2023/03/17 11:24:17;;;;;;;11.90;5.40;;;;;;;8.59;58.38;101447.52;104877;1267;99075;-78
2023/03/17 11:27:31;;;;;;;13.20;6.00;;;;;;;8.63;58.16;101443.02;104709;1274;98476;-79
2023/03/17 11:30:28;;;;;;;8.60;5.30;;;;;;;8.66;57.59;101436.95;104652;1267;98459;-79
2023/03/17 11:33:30;;;;;;;14.20;6.20;;;;;;;8.69;57.25;101437.91;104679;1267;101342;-79
2023/03/17 11:36:29;;;;;;;11.50;5.40;;;;;;;8.72;56.73;101428.39;104519;1274;100826;-77
2023/03/17 11:39:22;;;;;;;15.60;6.40;;;;;;;8.75;56.65;101418.79;104651;1271;99478;-79
2023/03/17 11:42:18;;;;;;;20.40;6.70;;;;;;;8.76;56.46;101420.25;104917;1268;98690;-79
2023/03/17 11:45:07;;;;;;;20.20;7.30;;;;;;;8.78;56.35;101416.02;104813;1271;97871;-77
2023/03/17 11:48:28;;;;;;;8.60;5.00;;;;;;;8.80;55.64;101412.75;104683;1272;102645;-76
2023/03/17 11:51:30;;;;;;;10.60;5.80;;;;;;;8.79;55.17;101408.25;104640;1273;99382;-79
2023/03/17 11:54:27;;;;;;;15.50;6.80;;;;;;;8.78;55.64;101408.13;104727;1271;99145;-78
2023/03/17 11:57:22;;;;;;;13.60;6.70;;;;;;;8.79;55.70;101410.73;104839;1267;97975;-78
2023/03/17 12:00:34;;;;;;;15.80;6.40;;;;;;;8.81;56.31;101402.98;104898;1267;98641;-83
2023/03/17 12:03:37;;;;;;;13.20;7.10;;;;;;;8.84;55.34;101400.77;105610;1267;101339;-82
2023/03/17 12:06:37;;;;;;;10.40;5.60;;;;;;;8.87;55.34;101397.45;105912;1268;99158;-90
2023/03/17 12:10:06;;;;;;;11.50;6.00;;;;;;;8.89;55.43;101394.33;106070;1272;98849;-90
2023/03/17 12:13:01;;;;;;;11.00;6.20;;;;;;;8.89;55.51;101390.98;105915;1273;97968;-84
2023/03/17 12:15:49;;;;;;;11.60;6.30;;;;;;;8.89;55.50;101391.52;105659;1270;98106;-85
2023/03/17 12:19:13;;;;;;;13.10;5.70;;;;;;;8.88;54.64;101391.76;105922;1271;102708;-79
2023/03/17 12:22:02;;;;;;;8.10;5.10;;;;;;;8.87;54.65;101390.44;105419;1274;100354;-79
2023/03/17 12:25:15;;;;;;;10.60;5.40;;;;;;;8.87;54.68;101388.81;105535;1271;98020;-80
2023/03/17 12:28:07;;;;;;;13.00;6.30;;;;;;;8.87;54.65;101387.10;106051;1267;96578;-80
2023/03/17 12:30:58;;;;;;;11.30;5.30;;;;;;;8.88;54.31;101384.50;106355;1267;95959;-81
2023/03/17 12:34:06;;;;;;;11.00;5.80;;;;;;;8.91;54.27;101383.86;106233;1271;102675;-81
2023/03/17 12:36:52;;;;;;;14.20;5.80;;;;;;;8.94;54.39;101385.95;105896;1267;99067;-82
2023/03/17 12:39:46;;;;;;;9.40;5.00;;;;;;;8.98;54.25;101384.00;105704;1267;98003;-81
2023/03/17 12:43:00;;;;;;;10.40;5.60;;;;;;;9.02;54.09;101379.08;105968;1267;96657;-80
2023/03/17 12:46:01;;;;;;;13.40;6.20;;;;;;;9.09;54.83;101374.95;106206;1271;97687;-82
2023/03/17 12:49:26;;;;;;;14.40;6.10;;;;;;;9.18;54.66;101369.36;105926;1268;101346;-82
2023/03/17 12:52:33;;;;;;;13.40;5.70;;;;;;;9.27;54.49;101369.71;105932;1267;99073;-80